createdAt,value
2018-05-11T00:01:30.558Z,7.93
2018-05-11T00:03:59.359Z,7.53
2018-05-11T00:06:28.393Z,8.67
2018-05-11T00:08:57.859Z,7.03
2018-05-11T00:11:26.063Z,7.13
2018-05-11T00:13:54.714Z,8.77
2018-05-11T00:16:22.994Z,8.70
2018-05-11T00:18:51.840Z,7.17
2018-05-11T00:21:21.011Z,6.87
2018-05-11T00:23:50.163Z,7.23
2018-05-11T00:26:19.839Z,8.00
2018-05-11T00:28:48.051Z,8.50
2018-05-11T00:31:16.558Z,7.47
2018-05-11T00:33:46.563Z,7.57
2018-05-11T00:36:15.508Z,7.30
2018-05-11T00:38:43.716Z,6.63
2018-05-11T00:41:12.871Z,8.40
2018-05-11T00:43:41.711Z,8.63
2018-05-11T00:46:10.712Z,8.43
2018-05-11T00:48:38.891Z,8.57
2018-05-11T00:51:07.164Z,9.20
2018-05-11T00:53:35.689Z,9.47
2018-05-11T00:56:04.772Z,8.00
2018-05-11T00:58:33.191Z,8.70
2018-05-11T01:01:01.999Z,9.63
2018-05-11T01:03:30.414Z,10.40
2018-05-11T01:05:58.967Z,8.20
2018-05-11T01:08:27.362Z,8.50
2018-05-11T01:10:55.547Z,8.47
2018-05-11T01:13:24.098Z,9.13
2018-05-11T01:15:52.662Z,7.97
2018-05-11T01:18:22.114Z,6.97
2018-05-11T01:20:51.384Z,9.33
2018-05-11T01:23:19.547Z,7.60
2018-05-11T01:25:48.086Z,8.33
2018-05-11T01:28:16.862Z,8.70
2018-05-11T01:30:45.591Z,10.27
2018-05-11T01:33:13.741Z,7.93
2018-05-11T01:35:42.852Z,8.17
2018-05-11T01:38:11.446Z,9.07
2018-05-11T01:40:39.636Z,8.73
2018-05-11T01:43:07.819Z,9.67
2018-05-11T01:45:36.328Z,8.30
2018-05-11T01:48:05.406Z,8.83
2018-05-11T01:50:34.737Z,8.27
2018-05-11T01:53:02.879Z,10.33
2018-05-11T01:55:31.928Z,9.03
2018-05-11T01:58:00.627Z,10.10
2018-05-11T02:00:28.895Z,9.57
2018-05-11T02:02:57.979Z,9.60
2018-05-11T02:05:26.562Z,8.73
2018-05-11T02:07:54.779Z,9.47
2018-05-11T02:10:23.359Z,10.27
2018-05-11T02:12:52.476Z,9.33
2018-05-11T02:15:20.933Z,9.77
2018-05-11T02:17:49.534Z,9.27
2018-05-11T02:20:18.507Z,9.17
2018-05-11T02:22:46.658Z,10.10
2018-05-11T02:25:15.244Z,9.60
2018-05-11T02:27:45.114Z,10.63
2018-05-11T02:30:14.283Z,8.90
2018-05-11T02:32:42.912Z,10.40
2018-05-11T02:35:11.540Z,9.63
2018-05-11T02:37:39.722Z,9.93
2018-05-11T02:40:08.929Z,8.67
2018-05-11T02:42:37.326Z,10.33
2018-05-11T02:45:06.859Z,9.17
2018-05-11T02:47:35.422Z,11.97
2018-05-11T02:50:03.691Z,8.80
2018-05-11T02:52:32.172Z,10.93
2018-05-11T02:55:00.755Z,10.20
2018-05-11T02:57:29.215Z,11.27
2018-05-11T02:59:57.633Z,11.07
2018-05-11T03:02:25.783Z,10.77
2018-05-11T03:04:54.003Z,11.40
2018-05-11T03:07:22.792Z,10.37
2018-05-11T03:09:51.838Z,11.67
2018-05-11T03:12:20.015Z,11.03
2018-05-11T03:14:49.015Z,11.47
2018-05-11T03:17:18.039Z,10.53
2018-05-11T03:19:47.707Z,12.40
2018-05-11T03:22:16.453Z,12.10
2018-05-11T03:24:44.594Z,11.10
2018-05-11T03:27:12.872Z,12.77
2018-05-11T03:29:41.507Z,12.63
2018-05-11T03:32:09.659Z,12.43
2018-05-11T03:34:38.691Z,12.80
2018-05-11T03:37:07.662Z,10.00
2018-05-11T03:39:36.550Z,11.40
2018-05-11T03:42:04.718Z,12.53
2018-05-11T03:44:33.393Z,12.70
2018-05-11T03:47:01.552Z,12.60
2018-05-11T03:49:30.026Z,12.97
2018-05-11T03:51:58.448Z,11.50
2018-05-11T03:54:27.039Z,11.77
2018-05-11T03:56:56.532Z,11.83
2018-05-11T03:59:25.190Z,13.93
2018-05-11T04:02:07.055Z,11.60
2018-05-11T04:04:47.501Z,12.30
2018-05-11T04:07:28.007Z,11.43
2018-05-11T04:09:57.492Z,11.03
2018-05-11T04:12:26.492Z,13.27
2018-05-11T04:14:54.974Z,12.03
2018-05-11T04:17:23.566Z,13.33
2018-05-11T04:19:52.233Z,12.80
2018-05-11T04:22:20.658Z,10.87
2018-05-11T04:24:49.076Z,12.07
2018-05-11T04:27:18.532Z,11.73
2018-05-11T04:29:47.036Z,11.33
2018-05-11T04:32:16.533Z,11.73
2018-05-11T04:34:46.210Z,13.23
2018-05-11T04:37:14.687Z,12.40
2018-05-11T04:39:42.792Z,13.80
2018-05-11T04:42:11.239Z,14.33
2018-05-11T04:44:39.751Z,13.80
2018-05-11T04:47:08.418Z,15.30
2018-05-11T04:49:36.911Z,14.00
2018-05-11T04:52:05.683Z,16.27
2018-05-11T04:54:33.842Z,13.20
2018-05-11T04:57:02.247Z,14.87
2018-05-11T04:59:30.430Z,14.37
2018-05-11T05:01:59.472Z,16.17
2018-05-11T05:04:28.098Z,13.10
2018-05-11T05:06:56.519Z,13.07
2018-05-11T05:09:24.673Z,12.33
2018-05-11T05:11:53.128Z,14.37
2018-05-11T05:14:21.752Z,13.20
2018-05-11T05:16:49.945Z,14.00
2018-05-11T05:19:19.333Z,11.53
2018-05-11T05:21:47.777Z,12.23
2018-05-11T05:24:16.187Z,11.50
2018-05-11T05:26:44.381Z,14.53
2018-05-11T05:29:12.937Z,11.87
2018-05-11T05:31:41.567Z,13.67
2018-05-11T05:34:10.928Z,12.10
2018-05-11T05:36:40.394Z,13.40
2018-05-11T05:39:08.586Z,11.73
2018-05-11T05:41:37.445Z,13.60
2018-05-11T05:44:06.598Z,11.93
2018-05-11T05:46:35.738Z,11.13
2018-05-11T05:49:04.902Z,11.57
2018-05-11T05:51:34.055Z,12.80
2018-05-11T05:54:02.479Z,11.07
2018-05-11T05:56:31.303Z,10.63
2018-05-11T05:59:00.788Z,11.87
2018-05-11T06:01:28.955Z,11.77
2018-05-11T06:03:57.623Z,12.43
2018-05-11T06:06:26.435Z,11.00
2018-05-11T06:08:55.294Z,10.87
2018-05-11T06:11:23.795Z,14.67
2018-05-11T06:13:52.457Z,13.20
2018-05-11T06:16:20.970Z,13.47
2018-05-11T06:18:49.612Z,13.97
2018-05-11T06:21:18.764Z,15.60
2018-05-11T06:23:47.395Z,15.67
2018-05-11T06:26:16.025Z,16.90
2018-05-11T06:28:44.550Z,17.40
2018-05-11T06:31:12.706Z,17.23
2018-05-11T06:33:41.576Z,19.87
2018-05-11T06:36:10.755Z,17.37
2018-05-11T06:38:39.384Z,18.13
2018-05-11T06:41:08.537Z,16.23
2018-05-11T06:43:37.689Z,16.53
2018-05-11T06:46:06.788Z,15.30
2018-05-11T06:48:35.670Z,15.13
2018-05-11T06:51:04.625Z,14.03
2018-05-11T06:53:33.254Z,14.07
2018-05-11T06:56:01.447Z,16.17
2018-05-11T06:58:30.064Z,15.23
2018-05-11T07:00:58.694Z,15.03
2018-05-11T07:03:28.432Z,13.80
2018-05-11T07:05:57.443Z,12.30
2018-05-11T07:08:25.630Z,11.90
2018-05-11T07:10:54.291Z,13.97
2018-05-11T07:13:23.224Z,13.80
2018-05-11T07:15:52.700Z,13.97
2018-05-11T07:18:21.121Z,14.77
2018-05-11T07:20:49.821Z,14.33
2018-05-11T07:23:18.491Z,14.23
2018-05-11T07:25:47.491Z,15.80
2018-05-11T07:28:16.060Z,15.17
2018-05-11T07:30:45.524Z,16.20
2018-05-11T07:33:14.454Z,15.53
2018-05-11T07:35:43.445Z,14.80
2018-05-11T07:38:11.927Z,14.47
2018-05-11T07:40:41.403Z,14.67
2018-05-11T07:43:11.460Z,13.77
2018-05-11T07:45:40.334Z,12.83
2018-05-11T07:48:09.591Z,12.67
2018-05-11T07:50:37.755Z,12.40
2018-05-11T07:53:06.957Z,12.37
2018-05-11T07:55:36.145Z,12.93
2018-05-11T07:58:04.439Z,13.43
2018-05-11T08:00:33.394Z,12.07
2018-05-11T08:03:03.243Z,12.90
2018-05-11T08:05:32.054Z,12.57
2018-05-11T08:08:00.724Z,12.13
2018-05-11T08:10:29.106Z,10.93
2018-05-11T08:12:57.347Z,12.00
2018-05-11T08:15:26.716Z,11.63
2018-05-11T08:17:55.523Z,12.47
2018-05-11T08:20:24.395Z,11.47
2018-05-11T08:22:52.604Z,11.37
2018-05-11T08:25:21.028Z,10.97
2018-05-11T08:27:49.558Z,13.00
2018-05-11T08:30:17.706Z,13.17
2018-05-11T08:32:46.595Z,11.53
2018-05-11T08:35:14.795Z,10.80
2018-05-11T08:37:43.434Z,11.33
2018-05-11T08:40:11.870Z,13.80
2018-05-11T08:42:40.499Z,12.27
2018-05-11T08:45:08.650Z,13.57
2018-05-11T08:47:37.134Z,13.70
2018-05-11T08:50:06.496Z,13.27
2018-05-11T08:52:35.427Z,14.03
2018-05-11T08:55:03.615Z,13.90
2018-05-11T08:57:32.047Z,12.17
2018-05-11T09:00:00.493Z,11.70
2018-05-11T09:02:29.096Z,11.27
2018-05-11T09:04:57.310Z,10.80
2018-05-11T09:07:26.416Z,11.70
2018-05-11T09:09:54.695Z,11.67
2018-05-11T09:12:24.167Z,10.90
2018-05-11T09:14:53.308Z,12.50
2018-05-11T09:17:21.524Z,11.87
2018-05-11T09:19:50.683Z,12.50
2018-05-11T09:22:19.615Z,13.73
2018-05-11T09:24:48.261Z,13.87
2018-05-11T09:27:17.191Z,13.00
2018-05-11T09:29:45.726Z,12.40
2018-05-11T09:32:14.869Z,12.67
2018-05-11T09:34:44.019Z,13.57
2018-05-11T09:37:14.214Z,11.40
2018-05-11T09:39:43.187Z,11.80
2018-05-11T09:42:12.219Z,12.27
2018-05-11T09:44:40.417Z,11.80
2018-05-11T09:47:09.375Z,11.50
2018-05-11T09:49:38.005Z,11.37
2018-05-11T09:52:06.530Z,10.47
2018-05-11T09:54:34.951Z,10.97
2018-05-11T09:57:03.443Z,12.80
2018-05-11T09:59:32.838Z,12.13
2018-05-11T10:02:02.484Z,12.77
2018-05-11T10:04:30.667Z,14.40
2018-05-11T10:06:59.567Z,13.57
2018-05-11T10:09:27.771Z,12.70
2018-05-11T10:11:56.856Z,12.00
2018-05-11T10:14:25.798Z,14.13
2018-05-11T10:16:54.271Z,12.87
2018-05-11T10:19:22.450Z,12.30
2018-05-11T10:21:50.927Z,12.30
2018-05-11T10:24:19.452Z,14.40
2018-05-11T10:26:47.617Z,12.60
2018-05-11T10:29:16.293Z,13.13
2018-05-11T10:31:44.715Z,13.20
2018-05-11T10:34:12.895Z,12.30
2018-05-11T10:36:41.860Z,13.23
2018-05-11T10:39:10.363Z,12.23
2018-05-11T10:41:39.031Z,12.20
2018-05-11T10:44:09.090Z,12.27
2018-05-11T10:46:37.612Z,13.50
2018-05-11T10:49:06.695Z,14.23
2018-05-11T10:51:35.728Z,13.87
2018-05-11T10:54:04.163Z,13.53
2018-05-11T10:56:32.331Z,12.50
2018-05-11T10:59:01.674Z,13.03
2018-05-11T11:01:30.053Z,10.93
2018-05-11T11:03:58.538Z,13.17
2018-05-11T11:06:27.313Z,12.63
2018-05-11T11:08:55.555Z,12.50
2018-05-11T11:11:23.758Z,13.33
2018-05-11T11:13:52.883Z,12.20
2018-05-11T11:16:21.391Z,12.50
2018-05-11T11:18:49.579Z,12.07
2018-05-11T11:21:17.945Z,11.30
2018-05-11T11:23:46.370Z,11.33
2018-05-11T11:26:15.298Z,12.60
2018-05-11T11:28:43.826Z,12.77
2018-05-11T11:31:12.778Z,13.40
2018-05-11T11:33:41.386Z,12.10
2018-05-11T11:36:09.579Z,11.30
2018-05-11T11:38:38.655Z,9.13
2018-05-11T11:41:06.892Z,11.00
2018-05-11T11:43:35.276Z,10.90
2018-05-11T11:46:05.488Z,11.50
2018-05-11T11:48:34.020Z,10.30
2018-05-11T11:51:03.210Z,10.93
2018-05-11T11:53:31.709Z,11.80
2018-05-11T11:56:00.124Z,11.33
2018-05-11T11:58:28.718Z,9.50
2018-05-11T12:00:57.877Z,10.27
2018-05-11T12:03:26.395Z,10.43
2018-05-11T12:05:54.615Z,11.10
2018-05-11T12:08:23.140Z,9.30
2018-05-11T12:10:51.999Z,9.57
2018-05-11T12:13:20.639Z,8.60
2018-05-11T12:15:48.855Z,11.00
2018-05-11T12:18:17.240Z,11.10
2018-05-11T12:20:46.323Z,10.53
2018-05-11T12:23:14.732Z,10.67
2018-05-11T12:25:43.236Z,9.53
2018-05-11T12:28:11.785Z,9.27
2018-05-11T12:30:40.835Z,10.57
2018-05-11T12:33:09.823Z,8.97
2018-05-11T12:35:38.715Z,9.70
2018-05-11T12:38:07.219Z,10.10
2018-05-11T12:40:35.432Z,9.10
2018-05-11T12:43:04.292Z,7.83
2018-05-11T12:45:32.519Z,9.20
2018-05-11T12:48:00.716Z,8.60
2018-05-11T12:50:29.325Z,9.77
2018-05-11T12:52:57.785Z,8.70
2018-05-11T12:55:25.907Z,8.03
2018-05-11T12:57:55.981Z,8.33
2018-05-11T13:00:25.552Z,8.50
2018-05-11T13:02:53.707Z,8.10
2018-05-11T13:05:21.911Z,7.30
2018-05-11T13:07:50.575Z,8.53
2018-05-11T13:10:19.643Z,8.97
2018-05-11T13:12:47.886Z,7.47
2018-05-11T13:15:16.287Z,7.10
2018-05-11T13:17:44.917Z,7.20
2018-05-11T13:20:13.861Z,8.00
2018-05-11T13:22:42.663Z,8.60
2018-05-11T13:25:10.846Z,7.07
2018-05-11T13:27:39.441Z,7.80
2018-05-11T13:30:08.066Z,7.93
2018-05-11T13:32:36.698Z,8.17
2018-05-11T13:35:05.296Z,7.97
2018-05-11T13:37:34.260Z,8.50
2018-05-11T13:40:02.894Z,8.00
2018-05-11T13:42:31.505Z,7.10
2018-05-11T13:44:59.685Z,6.80
2018-05-11T13:47:28.235Z,6.43
2018-05-11T13:49:56.775Z,6.30
2018-05-11T13:52:25.322Z,5.73
2018-05-11T13:54:53.743Z,5.60
2018-05-11T13:57:22.439Z,6.33
2018-05-11T13:59:51.590Z,6.03
2018-05-11T14:02:20.768Z,6.53
2018-05-11T14:04:50.626Z,6.10
2018-05-11T14:07:19.506Z,6.30
2018-05-11T14:09:48.135Z,6.67
2018-05-11T14:12:17.838Z,5.53
2018-05-11T14:14:47.050Z,5.53
2018-05-11T14:17:16.776Z,5.73
2018-05-11T14:19:45.266Z,5.33
2018-05-11T14:22:13.426Z,5.50
2018-05-11T14:24:41.900Z,5.70
2018-05-11T14:27:10.635Z,5.77
2018-05-11T14:29:39.056Z,4.80
2018-05-11T14:32:07.546Z,5.10
2018-05-11T14:34:36.212Z,5.00
2018-05-11T14:37:04.351Z,5.70
2018-05-11T14:39:33.268Z,4.63
2018-05-11T14:42:01.893Z,4.93
2018-05-11T14:44:30.614Z,12.53
2018-05-11T14:46:58.798Z,6.60
2018-05-11T14:49:27.368Z,5.93
2018-05-11T14:51:55.892Z,4.90
2018-05-11T14:54:24.384Z,4.50
2018-05-11T14:56:52.568Z,3.93
2018-05-11T14:59:21.259Z,4.73
2018-05-11T15:01:50.503Z,4.27
2018-05-11T15:04:18.678Z,3.97
2018-05-11T15:06:47.324Z,3.93
2018-05-11T15:09:16.291Z,4.40
2018-05-11T15:11:44.898Z,4.20
2018-05-11T15:14:13.354Z,3.67
2018-05-11T15:16:41.879Z,3.80
2018-05-11T15:19:10.405Z,4.10
2018-05-11T15:21:38.570Z,3.57
2018-05-11T15:24:07.992Z,4.30
2018-05-11T15:26:36.400Z,3.90
2018-05-11T15:29:05.540Z,4.40
2018-05-11T15:31:34.667Z,3.80
2018-05-11T15:34:03.334Z,3.90
2018-05-11T15:36:31.755Z,4.20
2018-05-11T15:39:00.907Z,4.17
2018-05-11T15:41:29.329Z,3.40
2018-05-11T15:43:57.927Z,4.00
2018-05-11T15:46:26.550Z,3.57
2018-05-11T15:48:55.422Z,3.70
2018-05-11T15:51:24.255Z,3.60
2018-05-11T15:53:52.796Z,3.83
2018-05-11T15:56:21.425Z,3.33
2018-05-11T15:58:50.587Z,3.40
2018-05-11T16:01:18.747Z,3.50
2018-05-11T16:03:47.312Z,3.13
2018-05-11T16:06:16.464Z,3.30
2018-05-11T16:08:45.370Z,3.10
2018-05-11T16:11:13.599Z,3.30
2018-05-11T16:13:42.251Z,2.90
2018-05-11T16:16:11.079Z,2.73
2018-05-11T16:18:40.335Z,3.00
2018-05-11T16:21:10.099Z,3.27
2018-05-11T16:23:38.288Z,3.20
2018-05-11T16:26:06.450Z,2.83
2018-05-11T16:28:34.681Z,2.97
2018-05-11T16:31:03.144Z,3.37
2018-05-11T16:33:31.672Z,2.87
2018-05-11T16:36:00.339Z,3.33
2018-05-11T16:38:28.761Z,3.47
2018-05-11T16:40:58.086Z,3.30
2018-05-11T16:43:26.267Z,3.40
2018-05-11T16:45:55.174Z,3.03
2018-05-11T16:48:23.339Z,3.50
2018-05-11T16:50:51.811Z,3.20
2018-05-11T16:53:20.298Z,3.70
2018-05-11T16:55:49.486Z,3.37
2018-05-11T16:58:18.624Z,3.20
2018-05-11T17:00:47.895Z,3.50
2018-05-11T17:03:16.420Z,3.20
2018-05-11T17:05:44.633Z,2.90
2018-05-11T17:08:12.788Z,3.00
2018-05-11T17:10:41.711Z,3.10
2018-05-11T17:13:10.668Z,3.00
2018-05-11T17:15:39.175Z,3.47
2018-05-11T17:18:08.127Z,2.87
2018-05-11T17:20:37.761Z,3.37
2018-05-11T17:23:06.403Z,3.40
2018-05-11T17:25:34.539Z,3.17
2018-05-11T17:28:03.959Z,3.20
2018-05-11T17:30:32.227Z,2.90
2018-05-11T17:33:00.506Z,2.90
2018-05-11T17:35:29.575Z,2.93
2018-05-11T17:37:58.087Z,2.57
2018-05-11T17:40:26.707Z,2.90
2018-05-11T17:42:55.337Z,3.00
2018-05-11T17:45:23.763Z,2.67
2018-05-11T17:47:52.288Z,2.90
2018-05-11T17:50:21.114Z,2.80
2018-05-11T17:52:49.531Z,2.80
2018-05-11T17:55:19.324Z,2.97
2018-05-11T17:57:48.580Z,2.70
2018-05-11T18:00:17.211Z,2.90
2018-05-11T18:02:45.844Z,3.10
2018-05-11T18:05:14.337Z,3.23
2018-05-11T18:07:43.507Z,3.00
2018-05-11T18:10:11.712Z,2.90
2018-05-11T18:12:40.171Z,2.90
2018-05-11T18:15:09.112Z,3.13
2018-05-11T18:17:38.418Z,2.77
2018-05-11T18:20:06.983Z,3.30
2018-05-11T18:22:35.135Z,3.30
2018-05-11T18:25:04.127Z,3.47
2018-05-11T18:27:33.282Z,3.23
2018-05-11T18:30:01.712Z,3.47
2018-05-11T18:32:30.342Z,4.17
2018-05-11T18:34:59.379Z,3.70
2018-05-11T18:37:28.020Z,4.13
2018-05-11T18:39:56.620Z,4.03
2018-05-11T18:42:25.175Z,3.90
2018-05-11T18:44:53.315Z,4.50
2018-05-11T18:47:22.947Z,4.03
2018-05-11T18:49:51.127Z,3.70
2018-05-11T18:52:19.591Z,3.63
2018-05-11T18:54:48.744Z,4.07
2018-05-11T18:57:17.269Z,4.23
2018-05-11T18:59:45.653Z,3.80
2018-05-11T19:02:14.112Z,4.00
2018-05-11T19:04:43.147Z,4.10
2018-05-11T19:07:13.031Z,4.07
2018-05-11T19:09:42.147Z,4.63
2018-05-11T19:12:10.603Z,4.13
2018-05-11T19:14:39.210Z,4.00
2018-05-11T19:17:07.391Z,4.47
2018-05-11T19:19:35.880Z,4.47
2018-05-11T19:22:05.926Z,4.63
2018-05-11T19:24:35.075Z,4.33
2018-05-11T19:27:03.967Z,5.03
2018-05-11T19:29:32.558Z,4.30
2018-05-11T19:32:01.189Z,4.97
2018-05-11T19:34:30.363Z,4.53
2018-05-11T19:36:58.903Z,4.47
2018-05-11T19:39:27.533Z,5.30
2018-05-11T19:41:55.674Z,6.50
2018-05-11T19:44:25.002Z,5.00
2018-05-11T19:46:53.290Z,4.30
2018-05-11T19:49:23.266Z,4.77
2018-05-11T19:51:52.183Z,4.90
2018-05-11T19:54:21.196Z,4.60
2018-05-11T19:56:49.782Z,4.47
2018-05-11T19:59:18.995Z,5.10
2018-05-11T20:01:48.679Z,4.87
2018-05-11T20:04:18.519Z,5.03
2018-05-11T20:06:46.956Z,4.80
2018-05-11T20:09:15.482Z,5.10
2018-05-11T20:11:44.008Z,4.40
2018-05-11T20:14:12.174Z,4.80
2018-05-11T20:16:41.363Z,4.53
2018-05-11T20:19:09.586Z,4.67
2018-05-11T20:21:38.007Z,5.00
2018-05-11T20:24:06.958Z,4.67
2018-05-11T20:26:35.343Z,4.30
2018-05-11T20:29:03.575Z,4.70
2018-05-11T20:31:32.004Z,5.03
2018-05-11T20:34:00.246Z,4.83
2018-05-11T20:36:28.461Z,4.50
2018-05-11T20:38:57.442Z,4.77
2018-05-11T20:41:25.897Z,4.60
2018-05-11T20:43:54.188Z,4.50
2018-05-11T20:46:22.575Z,3.90
2018-05-11T20:48:51.056Z,4.70
2018-05-11T20:51:20.215Z,4.83
2018-05-11T20:53:48.365Z,4.40
2018-05-11T20:56:16.543Z,4.53
2018-05-11T20:58:45.055Z,4.73
2018-05-11T21:01:14.300Z,4.53
2018-05-11T21:03:42.555Z,4.60
2018-05-11T21:06:11.664Z,4.30
2018-05-11T21:08:40.306Z,4.23
2018-05-11T21:11:08.799Z,4.73
2018-05-11T21:13:38.090Z,5.07
2018-05-11T21:16:06.222Z,4.60
2018-05-11T21:18:34.982Z,5.00
2018-05-11T21:21:03.167Z,4.73
2018-05-11T21:23:32.111Z,5.13
2018-05-11T21:26:01.345Z,4.30
2018-05-11T21:28:30.287Z,5.03
2018-05-11T21:30:58.435Z,4.83
2018-05-11T21:33:27.031Z,5.10
2018-05-11T21:35:55.182Z,5.23
2018-05-11T21:38:23.728Z,5.47
2018-05-11T21:40:53.390Z,4.50
2018-05-11T21:43:22.287Z,5.10
2018-05-11T21:45:50.489Z,4.97
2018-05-11T21:48:18.632Z,5.27
2018-05-11T21:50:48.083Z,4.97
2018-05-11T21:53:18.350Z,6.10
2018-05-11T21:55:46.938Z,5.93
2018-05-11T21:58:15.174Z,5.97
2018-05-11T22:00:43.695Z,5.20
2018-05-11T22:03:12.153Z,5.10
2018-05-11T22:05:42.245Z,5.17
2018-05-11T22:08:11.725Z,5.00
2018-05-11T22:10:40.411Z,4.90
2018-05-11T22:13:08.604Z,5.00
2018-05-11T22:15:37.080Z,5.13
2018-05-11T22:18:06.023Z,5.70
2018-05-11T22:20:34.203Z,5.00
2018-05-11T22:23:02.746Z,5.17
2018-05-11T22:25:31.390Z,5.00
2018-05-11T22:27:59.921Z,5.43
2018-05-11T22:30:28.067Z,5.40
2018-05-11T22:32:56.271Z,5.20
2018-05-11T22:35:25.496Z,5.17
2018-05-11T22:37:53.732Z,5.63
2018-05-11T22:40:22.754Z,4.60
2018-05-11T22:42:52.115Z,4.83
2018-05-11T22:45:20.710Z,5.40
2018-05-11T22:47:49.270Z,5.30
2018-05-11T22:50:18.411Z,4.80
2018-05-11T22:52:46.844Z,5.63
2018-05-11T22:55:15.473Z,4.93
2018-05-11T22:57:43.614Z,5.37
2018-05-11T23:00:16.555Z,4.70
2018-05-11T23:02:46.199Z,5.20
2018-05-11T23:05:14.903Z,4.97
2018-05-11T23:07:43.325Z,5.10
2018-05-11T23:10:12.581Z,4.90
2018-05-11T23:12:41.003Z,5.10
2018-05-11T23:15:09.200Z,4.53
2018-05-11T23:17:38.641Z,4.90
2018-05-11T23:20:07.543Z,4.67
2018-05-11T23:22:36.526Z,4.87
2018-05-11T23:25:04.703Z,4.87
2018-05-11T23:27:33.855Z,4.73
2018-05-11T23:30:02.062Z,4.83
2018-05-11T23:32:32.014Z,5.37
2018-05-11T23:35:00.250Z,4.60
2018-05-11T23:37:28.548Z,4.40
2018-05-11T23:39:57.696Z,4.37
2018-05-11T23:42:26.340Z,4.60
2018-05-11T23:44:56.191Z,4.20
2018-05-11T23:47:24.370Z,4.43
2018-05-11T23:49:53.134Z,5.00
2018-05-11T23:52:21.697Z,4.50
2018-05-11T23:54:51.057Z,4.80
2018-05-11T23:57:19.443Z,4.90
2018-05-11T23:59:47.628Z,5.03
